sensor_id;sensor_type;location;lat;lon;timestamp;temperature;humidity
17639;DHT22;8938;53.546;9.954;2023-03-15T00:01:37;6.30;99.90
17639;DHT22;8938;53.546;9.954;2023-03-15T00:04:03;6.40;99.90
17639;DHT22;8938;53.546;9.954;2023-03-15T00:06:30;6.50;99.90
17639;DHT22;8938;53.546;9.954;2023-03-15T00:08:58;6.50;99.90
17639;DHT22;8938;53.546;9.954;2023-03-15T00:11:24;6.40;99.90
17639;DHT22;8938;53.546;9.954;2023-03-15T00:13:49;6.40;99.90
17639;DHT22;8938;53.546;9.954;2023-03-15T00:16:16;6.40;99.90
17639;DHT22;8938;53.546;9.954;2023-03-15T00:18:43;6.30;99.90
17639;DHT22;8938;53.546;9.954;2023-03-15T00:21:09;6.30;99.90
17639;DHT22;8938;53.546;9.954;2023-03-15T00:23:34;6.30;99.90
17639;DHT22;8938;53.546;9.954;2023-03-15T00:26:00;6.30;99.90
17639;DHT22;8938;53.546;9.954;2023-03-15T00:28:26;6.20;99.90
17639;DHT22;8938;53.546;9.954;2023-03-15T00:31:02;6.20;99.90
17639;DHT22;8938;53.546;9.954;2023-03-15T00:33:28;6.30;99.90
17639;DHT22;8938;53.546;9.954;2023-03-15T00:35:53;6.30;99.90
17639;DHT22;8938;53.546;9.954;2023-03-15T00:38:19;6.20;99.90
17639;DHT22;8938;53.546;9.954;2023-03-15T00:40:46;6.10;99.90
17639;DHT22;8938;53.546;9.954;2023-03-15T00:43:11;6.20;99.90
17639;DHT22;8938;53.546;9.954;2023-03-15T00:45:42;6.30;99.90
17639;DHT22;8938;53.546;9.954;2023-03-15T00:48:10;6.40;99.90
17639;DHT22;8938;53.546;9.954;2023-03-15T00:50:35;6.40;99.90
17639;DHT22;8938;53.546;9.954;2023-03-15T00:53:01;6.40;99.90
17639;DHT22;8938;53.546;9.954;2023-03-15T00:55:27;6.30;99.90
17639;DHT22;8938;53.546;9.954;2023-03-15T00:57:52;6.20;99.90
17639;DHT22;8938;53.546;9.954;2023-03-15T01:00:20;6.20;99.90
17639;DHT22;8938;53.546;9.954;2023-03-15T01:02:48;6.10;99.90
17639;DHT22;8938;53.546;9.954;2023-03-15T01:05:15;6.10;99.90
17639;DHT22;8938;53.546;9.954;2023-03-15T01:07:40;6.00;99.90
17639;DHT22;8938;53.546;9.954;2023-03-15T01:10:06;6.00;99.90
17639;DHT22;8938;53.546;9.954;2023-03-15T01:12:33;6.00;99.90
17639;DHT22;8938;53.546;9.954;2023-03-15T01:15:00;6.00;99.90
17639;DHT22;8938;53.546;9.954;2023-03-15T01:17:26;5.90;99.90
17639;DHT22;8938;53.546;9.954;2023-03-15T01:19:51;5.90;99.90
17639;DHT22;8938;53.546;9.954;2023-03-15T01:22:18;5.80;99.90
17639;DHT22;8938;53.546;9.954;2023-03-15T01:24:43;5.70;99.90
17639;DHT22;8938;53.546;9.954;2023-03-15T01:27:09;5.80;99.90
17639;DHT22;8938;53.546;9.954;2023-03-15T01:29:34;5.90;99.90
17639;DHT22;8938;53.546;9.954;2023-03-15T01:32:00;5.90;99.90
17639;DHT22;8938;53.546;9.954;2023-03-15T01:34:25;6.00;99.90
17639;DHT22;8938;53.546;9.954;2023-03-15T01:36:51;6.00;99.90
17639;DHT22;8938;53.546;9.954;2023-03-15T01:39:18;5.80;99.90
17639;DHT22;8938;53.546;9.954;2023-03-15T01:41:43;5.70;99.90
17639;DHT22;8938;53.546;9.954;2023-03-15T01:44:17;5.60;99.90
17639;DHT22;8938;53.546;9.954;2023-03-15T01:46:42;5.40;99.90
17639;DHT22;8938;53.546;9.954;2023-03-15T01:49:34;5.50;99.90
17639;DHT22;8938;53.546;9.954;2023-03-15T01:52:04;5.60;99.90
17639;DHT22;8938;53.546;9.954;2023-03-15T01:54:59;5.60;99.90
17639;DHT22;8938;53.546;9.954;2023-03-15T01:57:32;5.70;99.90
17639;DHT22;8938;53.546;9.954;2023-03-15T02:00:09;5.70;99.90
17639;DHT22;8938;53.546;9.954;2023-03-15T02:02:40;5.60;99.90
17639;DHT22;8938;53.546;9.954;2023-03-15T02:05:13;5.60;99.90
17639;DHT22;8938;53.546;9.954;2023-03-15T02:07:43;5.70;99.90
17639;DHT22;8938;53.546;9.954;2023-03-15T02:10:29;5.60;99.90
17639;DHT22;8938;53.546;9.954;2023-03-15T02:12:56;5.70;99.90
17639;DHT22;8938;53.546;9.954;2023-03-15T02:15:22;5.70;99.90
17639;DHT22;8938;53.546;9.954;2023-03-15T02:17:48;5.70;99.90
17639;DHT22;8938;53.546;9.954;2023-03-15T02:20:34;6.50;99.90
17639;DHT22;8938;53.546;9.954;2023-03-15T02:23:07;5.80;99.90
17639;DHT22;8938;53.546;9.954;2023-03-15T02:30:39;6.00;99.90
17639;DHT22;8938;53.546;9.954;2023-03-15T02:33:11;6.00;99.90
17639;DHT22;8938;53.546;9.954;2023-03-15T02:35:39;6.10;99.90
17639;DHT22;8938;53.546;9.954;2023-03-15T02:38:04;6.10;99.90
17639;DHT22;8938;53.546;9.954;2023-03-15T02:40:30;6.10;99.90
17639;DHT22;8938;53.546;9.954;2023-03-15T02:47:57;6.30;99.90
17639;DHT22;8938;53.546;9.954;2023-03-15T02:50:24;6.30;99.90
17639;DHT22;8938;53.546;9.954;2023-03-15T02:52:49;6.00;99.90
17639;DHT22;8938;53.546;9.954;2023-03-15T02:55:17;6.30;99.90
17639;DHT22;8938;53.546;9.954;2023-03-15T02:57:44;6.20;99.90
17639;DHT22;8938;53.546;9.954;2023-03-15T03:00:10;6.00;99.90
17639;DHT22;8938;53.546;9.954;2023-03-15T03:02:41;6.10;99.90
17639;DHT22;8938;53.546;9.954;2023-03-15T03:05:07;6.10;99.90
17639;DHT22;8938;53.546;9.954;2023-03-15T03:07:34;6.20;99.90
17639;DHT22;8938;53.546;9.954;2023-03-15T03:09:59;6.20;99.90
17639;DHT22;8938;53.546;9.954;2023-03-15T03:12:25;6.20;99.90
17639;DHT22;8938;53.546;9.954;2023-03-15T03:14:50;6.20;99.90
17639;DHT22;8938;53.546;9.954;2023-03-15T03:17:16;6.20;99.90
17639;DHT22;8938;53.546;9.954;2023-03-15T03:19:41;6.20;99.90
17639;DHT22;8938;53.546;9.954;2023-03-15T03:22:07;6.10;99.90
17639;DHT22;8938;53.546;9.954;2023-03-15T03:24:32;6.20;99.90
17639;DHT22;8938;53.546;9.954;2023-03-15T03:26:59;6.30;99.90
17639;DHT22;8938;53.546;9.954;2023-03-15T03:29:25;6.40;99.90
17639;DHT22;8938;53.546;9.954;2023-03-15T03:31:50;6.50;99.90
17639;DHT22;8938;53.546;9.954;2023-03-15T03:34:16;6.50;99.90
17639;DHT22;8938;53.546;9.954;2023-03-15T03:36:42;6.60;99.90
17639;DHT22;8938;53.546;9.954;2023-03-15T03:39:08;6.40;99.90
17639;DHT22;8938;53.546;9.954;2023-03-15T03:41:35;6.50;99.90
17639;DHT22;8938;53.546;9.954;2023-03-15T03:44:00;6.60;99.90
17639;DHT22;8938;53.546;9.954;2023-03-15T03:46:26;6.50;99.90
17639;DHT22;8938;53.546;9.954;2023-03-15T03:48:53;6.60;99.90
17639;DHT22;8938;53.546;9.954;2023-03-15T03:51:19;6.60;99.90
17639;DHT22;8938;53.546;9.954;2023-03-15T03:53:44;6.70;99.90
17639;DHT22;8938;53.546;9.954;2023-03-15T03:56:10;6.70;99.90
17639;DHT22;8938;53.546;9.954;2023-03-15T03:58:36;6.80;99.90
17639;DHT22;8938;53.546;9.954;2023-03-15T04:01:01;6.70;99.90
17639;DHT22;8938;53.546;9.954;2023-03-15T04:03:29;6.60;99.90
17639;DHT22;8938;53.546;9.954;2023-03-15T04:05:56;6.50;99.90
17639;DHT22;8938;53.546;9.954;2023-03-15T04:08:23;6.40;99.90
17639;DHT22;8938;53.546;9.954;2023-03-15T04:10:58;6.40;99.90
17639;DHT22;8938;53.546;9.954;2023-03-15T04:13:24;6.40;99.90
17639;DHT22;8938;53.546;9.954;2023-03-15T04:15:50;6.40;99.90
17639;DHT22;8938;53.546;9.954;2023-03-15T04:18:16;6.50;99.90
17639;DHT22;8938;53.546;9.954;2023-03-15T04:20:42;6.50;99.90
17639;DHT22;8938;53.546;9.954;2023-03-15T04:23:17;6.40;99.90
17639;DHT22;8938;53.546;9.954;2023-03-15T04:25:50;6.40;99.90
17639;DHT22;8938;53.546;9.954;2023-03-15T04:28:17;6.40;99.90
17639;DHT22;8938;53.546;9.954;2023-03-15T04:30:46;6.40;99.90
17639;DHT22;8938;53.546;9.954;2023-03-15T04:33:12;6.30;99.90
17639;DHT22;8938;53.546;9.954;2023-03-15T04:35:38;6.30;99.90
17639;DHT22;8938;53.546;9.954;2023-03-15T04:38:05;6.30;99.90
17639;DHT22;8938;53.546;9.954;2023-03-15T04:40:31;6.30;99.90
17639;DHT22;8938;53.546;9.954;2023-03-15T04:43:00;6.30;99.90
17639;DHT22;8938;53.546;9.954;2023-03-15T04:45:26;6.40;99.90
17639;DHT22;8938;53.546;9.954;2023-03-15T04:47:53;6.40;99.90
17639;DHT22;8938;53.546;9.954;2023-03-15T04:50:20;6.50;99.90
17639;DHT22;8938;53.546;9.954;2023-03-15T04:52:45;6.50;99.90
17639;DHT22;8938;53.546;9.954;2023-03-15T04:55:11;6.50;99.90
17639;DHT22;8938;53.546;9.954;2023-03-15T04:57:37;6.40;99.90
17639;DHT22;8938;53.546;9.954;2023-03-15T05:00:04;6.40;99.90
17639;DHT22;8938;53.546;9.954;2023-03-15T05:02:33;6.50;99.90
17639;DHT22;8938;53.546;9.954;2023-03-15T05:04:58;6.40;99.90
17639;DHT22;8938;53.546;9.954;2023-03-15T05:07:24;6.30;99.90
17639;DHT22;8938;53.546;9.954;2023-03-15T05:09:50;6.30;99.90
17639;DHT22;8938;53.546;9.954;2023-03-15T05:12:15;6.30;99.90
17639;DHT22;8938;53.546;9.954;2023-03-15T05:14:41;6.20;99.90
17639;DHT22;8938;53.546;9.954;2023-03-15T05:17:12;6.10;99.90
17639;DHT22;8938;53.546;9.954;2023-03-15T05:19:39;6.10;99.90
17639;DHT22;8938;53.546;9.954;2023-03-15T05:22:07;6.00;99.90
17639;DHT22;8938;53.546;9.954;2023-03-15T05:24:32;6.10;99.90
17639;DHT22;8938;53.546;9.954;2023-03-15T05:26:58;6.10;99.90
17639;DHT22;8938;53.546;9.954;2023-03-15T05:29:23;6.10;99.90
17639;DHT22;8938;53.546;9.954;2023-03-15T05:31:49;6.20;99.90
17639;DHT22;8938;53.546;9.954;2023-03-15T05:34:17;6.20;99.90
17639;DHT22;8938;53.546;9.954;2023-03-15T05:36:42;6.20;99.90
17639;DHT22;8938;53.546;9.954;2023-03-15T05:39:08;6.10;99.90
17639;DHT22;8938;53.546;9.954;2023-03-15T05:41:34;6.10;99.90
17639;DHT22;8938;53.546;9.954;2023-03-15T05:43:59;6.00;99.90
17639;DHT22;8938;53.546;9.954;2023-03-15T05:46:25;6.00;99.90
17639;DHT22;8938;53.546;9.954;2023-03-15T05:48:51;6.00;99.90
17639;DHT22;8938;53.546;9.954;2023-03-15T05:51:18;6.10;99.90
17639;DHT22;8938;53.546;9.954;2023-03-15T05:53:43;6.00;99.90
17639;DHT22;8938;53.546;9.954;2023-03-15T05:56:09;6.00;99.90
17639;DHT22;8938;53.546;9.954;2023-03-15T05:58:35;5.80;99.90
17639;DHT22;8938;53.546;9.954;2023-03-15T06:01:01;5.70;99.90
17639;DHT22;8938;53.546;9.954;2023-03-15T06:03:28;5.60;99.90
17639;DHT22;8938;53.546;9.954;2023-03-15T06:05:54;5.70;99.90
17639;DHT22;8938;53.546;9.954;2023-03-15T06:08:22;5.80;99.90
17639;DHT22;8938;53.546;9.954;2023-03-15T06:10:48;5.70;99.90
17639;DHT22;8938;53.546;9.954;2023-03-15T06:13:14;5.80;99.90
17639;DHT22;8938;53.546;9.954;2023-03-15T06:15:39;5.70;99.90
17639;DHT22;8938;53.546;9.954;2023-03-15T06:18:05;5.70;99.90
17639;DHT22;8938;53.546;9.954;2023-03-15T06:20:30;5.60;99.90
17639;DHT22;8938;53.546;9.954;2023-03-15T06:22:56;5.60;99.90
17639;DHT22;8938;53.546;9.954;2023-03-15T06:25:22;5.40;99.90
17639;DHT22;8938;53.546;9.954;2023-03-15T06:27:48;5.30;99.90
17639;DHT22;8938;53.546;9.954;2023-03-15T06:30:13;5.40;99.90
17639;DHT22;8938;53.546;9.954;2023-03-15T06:32:39;5.50;99.90
17639;DHT22;8938;53.546;9.954;2023-03-15T06:35:05;5.50;99.90
17639;DHT22;8938;53.546;9.954;2023-03-15T06:37:31;5.50;99.90
17639;DHT22;8938;53.546;9.954;2023-03-15T06:39:56;5.40;99.90
17639;DHT22;8938;53.546;9.954;2023-03-15T06:42:22;5.50;99.90
17639;DHT22;8938;53.546;9.954;2023-03-15T06:44:47;5.40;99.90
17639;DHT22;8938;53.546;9.954;2023-03-15T06:47:13;5.50;99.90
17639;DHT22;8938;53.546;9.954;2023-03-15T06:49:38;5.60;99.90
17639;DHT22;8938;53.546;9.954;2023-03-15T06:52:05;5.60;99.90
17639;DHT22;8938;53.546;9.954;2023-03-15T06:54:31;5.80;99.90
17639;DHT22;8938;53.546;9.954;2023-03-15T06:56:57;5.70;99.90
17639;DHT22;8938;53.546;9.954;2023-03-15T06:59:22;5.60;99.90
17639;DHT22;8938;53.546;9.954;2023-03-15T07:01:48;5.70;99.90
17639;DHT22;8938;53.546;9.954;2023-03-15T07:04:14;5.80;99.90
17639;DHT22;8938;53.546;9.954;2023-03-15T07:06:39;5.80;99.90
17639;DHT22;8938;53.546;9.954;2023-03-15T07:09:05;5.90;99.90
17639;DHT22;8938;53.546;9.954;2023-03-15T07:11:31;6.10;99.90
17639;DHT22;8938;53.546;9.954;2023-03-15T07:13:56;6.30;99.90
17639;DHT22;8938;53.546;9.954;2023-03-15T07:16:23;6.40;99.90
17639;DHT22;8938;53.546;9.954;2023-03-15T07:18:48;6.60;99.90
17639;DHT22;8938;53.546;9.954;2023-03-15T07:21:14;6.70;99.90
17639;DHT22;8938;53.546;9.954;2023-03-15T07:23:40;6.70;99.90
17639;DHT22;8938;53.546;9.954;2023-03-15T07:26:06;6.50;99.90
17639;DHT22;8938;53.546;9.954;2023-03-15T07:28:31;6.40;99.90
17639;DHT22;8938;53.546;9.954;2023-03-15T07:31:01;6.30;99.90
17639;DHT22;8938;53.546;9.954;2023-03-15T07:33:29;6.20;99.90
17639;DHT22;8938;53.546;9.954;2023-03-15T07:35:55;6.20;99.90
17639;DHT22;8938;53.546;9.954;2023-03-15T07:38:22;6.10;99.90
17639;DHT22;8938;53.546;9.954;2023-03-15T07:40:48;6.00;99.90
17639;DHT22;8938;53.546;9.954;2023-03-15T07:43:14;5.90;99.90
17639;DHT22;8938;53.546;9.954;2023-03-15T07:45:39;5.70;99.90
17639;DHT22;8938;53.546;9.954;2023-03-15T07:48:06;5.80;99.90
17639;DHT22;8938;53.546;9.954;2023-03-15T07:50:32;5.90;99.90
17639;DHT22;8938;53.546;9.954;2023-03-15T07:52:58;6.10;99.90
17639;DHT22;8938;53.546;9.954;2023-03-15T07:55:24;6.10;99.90
17639;DHT22;8938;53.546;9.954;2023-03-15T07:57:50;6.20;99.90
17639;DHT22;8938;53.546;9.954;2023-03-15T08:00:16;6.30;99.90
17639;DHT22;8938;53.546;9.954;2023-03-15T08:02:42;6.30;99.90
17639;DHT22;8938;53.546;9.954;2023-03-15T08:05:08;6.20;99.90
17639;DHT22;8938;53.546;9.954;2023-03-15T08:07:34;6.20;99.90
17639;DHT22;8938;53.546;9.954;2023-03-15T08:10:04;6.20;99.90
17639;DHT22;8938;53.546;9.954;2023-03-15T08:12:30;6.30;99.90
17639;DHT22;8938;53.546;9.954;2023-03-15T08:14:56;6.40;99.90
17639;DHT22;8938;53.546;9.954;2023-03-15T08:17:21;6.50;99.90
17639;DHT22;8938;53.546;9.954;2023-03-15T08:19:47;6.40;99.90
17639;DHT22;8938;53.546;9.954;2023-03-15T08:22:12;6.40;99.90
17639;DHT22;8938;53.546;9.954;2023-03-15T08:24:38;6.60;99.90
17639;DHT22;8938;53.546;9.954;2023-03-15T08:27:04;6.70;99.90
17639;DHT22;8938;53.546;9.954;2023-03-15T08:29:29;6.80;99.90
17639;DHT22;8938;53.546;9.954;2023-03-15T08:31:56;6.70;99.90
17639;DHT22;8938;53.546;9.954;2023-03-15T08:34:29;6.70;99.90
17639;DHT22;8938;53.546;9.954;2023-03-15T08:36:57;6.80;99.90
17639;DHT22;8938;53.546;9.954;2023-03-15T08:39:23;6.70;99.90
17639;DHT22;8938;53.546;9.954;2023-03-15T08:41:48;6.80;99.90
17639;DHT22;8938;53.546;9.954;2023-03-15T08:44:15;6.80;99.90
17639;DHT22;8938;53.546;9.954;2023-03-15T08:46:41;6.80;99.90
17639;DHT22;8938;53.546;9.954;2023-03-15T08:49:06;6.80;99.90
17639;DHT22;8938;53.546;9.954;2023-03-15T08:51:32;6.80;99.90
17639;DHT22;8938;53.546;9.954;2023-03-15T08:53:57;7.10;99.90
17639;DHT22;8938;53.546;9.954;2023-03-15T08:56:23;7.00;99.90
17639;DHT22;8938;53.546;9.954;2023-03-15T08:58:49;7.00;99.90
17639;DHT22;8938;53.546;9.954;2023-03-15T09:01:15;7.10;99.90
17639;DHT22;8938;53.546;9.954;2023-03-15T09:03:40;7.30;99.90
17639;DHT22;8938;53.546;9.954;2023-03-15T09:06:08;7.50;99.90
17639;DHT22;8938;53.546;9.954;2023-03-15T09:08:34;7.90;99.90
17639;DHT22;8938;53.546;9.954;2023-03-15T09:11:00;8.30;99.90
17639;DHT22;8938;53.546;9.954;2023-03-15T09:13:28;8.50;99.90
17639;DHT22;8938;53.546;9.954;2023-03-15T09:15:55;8.70;99.90
17639;DHT22;8938;53.546;9.954;2023-03-15T09:18:21;8.40;99.90
17639;DHT22;8938;53.546;9.954;2023-03-15T09:20:47;8.10;99.90
17639;DHT22;8938;53.546;9.954;2023-03-15T09:23:12;7.50;99.90
17639;DHT22;8938;53.546;9.954;2023-03-15T09:25:38;7.10;99.90
17639;DHT22;8938;53.546;9.954;2023-03-15T09:28:05;6.70;99.90
17639;DHT22;8938;53.546;9.954;2023-03-15T09:30:32;6.60;99.90
17639;DHT22;8938;53.546;9.954;2023-03-15T09:32:58;6.50;99.90
17639;DHT22;8938;53.546;9.954;2023-03-15T09:35:24;6.60;99.90
17639;DHT22;8938;53.546;9.954;2023-03-15T09:37:50;6.90;99.90
17639;DHT22;8938;53.546;9.954;2023-03-15T09:40:38;7.40;99.90
17639;DHT22;8938;53.546;9.954;2023-03-15T09:45:58;10.70;99.90
17639;DHT22;8938;53.546;9.954;2023-03-15T09:50:56;13.30;99.90
17639;DHT22;8938;53.546;9.954;2023-03-15T10:01:47;16.10;98.90
17639;DHT22;8938;53.546;9.954;2023-03-15T10:04:26;16.10;99.00
17639;DHT22;8938;53.546;9.954;2023-03-15T10:07:00;14.60;99.00
17639;DHT22;8938;53.546;9.954;2023-03-15T10:09:29;12.80;99.90
17639;DHT22;8938;53.546;9.954;2023-03-15T10:15:06;10.80;99.90
17639;DHT22;8938;53.546;9.954;2023-03-15T10:17:59;10.10;99.90
17639;DHT22;8938;53.546;9.954;2023-03-15T10:20:38;9.60;99.90
17639;DHT22;8938;53.546;9.954;2023-03-15T10:23:38;9.20;99.90
17639;DHT22;8938;53.546;9.954;2023-03-15T10:26:10;8.80;99.90
17639;DHT22;8938;53.546;9.954;2023-03-15T10:28:37;8.70;99.90
17639;DHT22;8938;53.546;9.954;2023-03-15T10:31:19;8.50;99.90
17639;DHT22;8938;53.546;9.954;2023-03-15T10:33:46;9.70;99.90
17639;DHT22;8938;53.546;9.954;2023-03-15T10:36:16;9.60;99.90
17639;DHT22;8938;53.546;9.954;2023-03-15T10:38:43;9.30;99.90
17639;DHT22;8938;53.546;9.954;2023-03-15T10:41:11;9.80;99.90
17639;DHT22;8938;53.546;9.954;2023-03-15T10:43:38;10.00;99.90
17639;DHT22;8938;53.546;9.954;2023-03-15T10:46:26;10.20;99.90
17639;DHT22;8938;53.546;9.954;2023-03-15T10:48:59;10.00;99.90
17639;DHT22;8938;53.546;9.954;2023-03-15T10:51:40;9.80;99.90
17639;DHT22;8938;53.546;9.954;2023-03-15T10:54:18;9.50;99.90
17639;DHT22;8938;53.546;9.954;2023-03-15T10:56:50;9.40;99.90
17639;DHT22;8938;53.546;9.954;2023-03-15T10:59:22;10.00;99.90
17639;DHT22;8938;53.546;9.954;2023-03-15T11:01:51;10.50;99.90
17639;DHT22;8938;53.546;9.954;2023-03-15T11:04:20;10.90;99.90
17639;DHT22;8938;53.546;9.954;2023-03-15T11:06:48;10.70;99.90
17639;DHT22;8938;53.546;9.954;2023-03-15T11:09:20;10.60;99.90
17639;DHT22;8938;53.546;9.954;2023-03-15T11:11:56;10.50;99.90
17639;DHT22;8938;53.546;9.954;2023-03-15T11:14:23;10.40;99.90
17639;DHT22;8938;53.546;9.954;2023-03-15T11:16:51;10.20;99.90
17639;DHT22;8938;53.546;9.954;2023-03-15T11:19:21;10.20;99.90
17639;DHT22;8938;53.546;9.954;2023-03-15T11:21:49;10.00;99.90
17639;DHT22;8938;53.546;9.954;2023-03-15T11:24:26;9.80;99.90
17639;DHT22;8938;53.546;9.954;2023-03-15T11:26:54;9.80;99.90
17639;DHT22;8938;53.546;9.954;2023-03-15T11:29:33;9.70;99.90
17639;DHT22;8938;53.546;9.954;2023-03-15T11:32:14;9.70;99.90
17639;DHT22;8938;53.546;9.954;2023-03-15T11:37:24;9.90;99.90
17639;DHT22;8938;53.546;9.954;2023-03-15T11:42:34;9.90;99.90
17639;DHT22;8938;53.546;9.954;2023-03-15T11:45:05;9.80;99.90
17639;DHT22;8938;53.546;9.954;2023-03-15T11:50:06;10.00;99.90
17639;DHT22;8938;53.546;9.954;2023-03-15T11:52:35;9.90;99.90
17639;DHT22;8938;53.546;9.954;2023-03-15T11:55:01;9.20;99.90
17639;DHT22;8938;53.546;9.954;2023-03-15T11:59:56;8.50;99.90
17639;DHT22;8938;53.546;9.954;2023-03-15T12:02:48;8.20;99.90
17639;DHT22;8938;53.546;9.954;2023-03-15T12:05:45;8.00;99.90
17639;DHT22;8938;53.546;9.954;2023-03-15T12:11:01;7.90;99.90
17639;DHT22;8938;53.546;9.954;2023-03-15T12:13:34;7.80;99.90
17639;DHT22;8938;53.546;9.954;2023-03-15T12:16:00;7.80;99.90
17639;DHT22;8938;53.546;9.954;2023-03-15T12:18:31;8.00;99.90
17639;DHT22;8938;53.546;9.954;2023-03-15T12:21:06;8.20;99.90
17639;DHT22;8938;53.546;9.954;2023-03-15T12:23:59;8.60;99.90
17639;DHT22;8938;53.546;9.954;2023-03-15T12:26:32;9.00;99.90
17639;DHT22;8938;53.546;9.954;2023-03-15T12:29:06;9.00;99.90
17639;DHT22;8938;53.546;9.954;2023-03-15T12:31:49;9.00;99.90
17639;DHT22;8938;53.546;9.954;2023-03-15T12:37:07;8.60;99.90
17639;DHT22;8938;53.546;9.954;2023-03-15T12:39:58;8.40;99.90
17639;DHT22;8938;53.546;9.954;2023-03-15T12:56:34;9.20;99.90
17639;DHT22;8938;53.546;9.954;2023-03-15T12:59:14;9.50;99.90
17639;DHT22;8938;53.546;9.954;2023-03-15T13:01:41;9.70;99.90
17639;DHT22;8938;53.546;9.954;2023-03-15T13:04:09;9.70;99.90
17639;DHT22;8938;53.546;9.954;2023-03-15T13:07:42;9.80;99.90
17639;DHT22;8938;53.546;9.954;2023-03-15T13:09:51;10.00;99.90
17639;DHT22;8938;53.546;9.954;2023-03-15T13:12:36;10.20;99.90
17639;DHT22;8938;53.546;9.954;2023-03-15T13:18:19;10.60;99.90
17639;DHT22;8938;53.546;9.954;2023-03-15T13:23:32;10.50;99.90
17639;DHT22;8938;53.546;9.954;2023-03-15T13:26:42;10.50;99.90
17639;DHT22;8938;53.546;9.954;2023-03-15T13:29:25;10.60;99.90
17639;DHT22;8938;53.546;9.954;2023-03-15T13:32:10;10.70;99.90
17639;DHT22;8938;53.546;9.954;2023-03-15T13:34:37;11.10;99.90
17639;DHT22;8938;53.546;9.954;2023-03-15T13:37:03;11.40;99.00
17639;DHT22;8938;53.546;9.954;2023-03-15T13:39:31;11.60;98.30
17639;DHT22;8938;53.546;9.954;2023-03-15T13:42:03;11.40;98.40
17639;DHT22;8938;53.546;9.954;2023-03-15T13:44:29;11.10;98.40
17639;DHT22;8938;53.546;9.954;2023-03-15T13:46:57;11.10;98.40
17639;DHT22;8938;53.546;9.954;2023-03-15T13:49:24;10.90;98.10
17639;DHT22;8938;53.546;9.954;2023-03-15T13:51:52;10.70;97.80
17639;DHT22;8938;53.546;9.954;2023-03-15T13:54:23;10.50;97.80
17639;DHT22;8938;53.546;9.954;2023-03-15T13:57:02;10.60;97.90
17639;DHT22;8938;53.546;9.954;2023-03-15T13:59:35;10.60;97.90
17639;DHT22;8938;53.546;9.954;2023-03-15T14:02:03;10.60;97.80
17639;DHT22;8938;53.546;9.954;2023-03-15T14:04:34;10.70;97.60
17639;DHT22;8938;53.546;9.954;2023-03-15T14:07:25;10.50;97.30
17639;DHT22;8938;53.546;9.954;2023-03-15T14:12:49;10.30;97.50
17639;DHT22;8938;53.546;9.954;2023-03-15T14:15:34;10.40;97.80
17639;DHT22;8938;53.546;9.954;2023-03-15T14:23:18;10.20;98.10
17639;DHT22;8938;53.546;9.954;2023-03-15T14:26:03;9.90;98.60
17639;DHT22;8938;53.546;9.954;2023-03-15T14:28:31;9.60;99.00
17639;DHT22;8938;53.546;9.954;2023-03-15T14:30:58;9.50;99.10
17639;DHT22;8938;53.546;9.954;2023-03-15T14:33:35;9.60;99.20
17639;DHT22;8938;53.546;9.954;2023-03-15T14:36:05;9.60;99.40
17639;DHT22;8938;53.546;9.954;2023-03-15T14:38:38;9.70;99.50
17639;DHT22;8938;53.546;9.954;2023-03-15T14:41:17;9.80;99.40
17639;DHT22;8938;53.546;9.954;2023-03-15T14:43:43;9.80;99.50
17639;DHT22;8938;53.546;9.954;2023-03-15T14:46:09;10.00;99.70
17639;DHT22;8938;53.546;9.954;2023-03-15T14:48:34;10.00;99.70
17639;DHT22;8938;53.546;9.954;2023-03-15T14:51:00;10.20;99.80
17639;DHT22;8938;53.546;9.954;2023-03-15T14:53:33;10.10;99.80
17639;DHT22;8938;53.546;9.954;2023-03-15T14:55:59;10.20;99.90
17639;DHT22;8938;53.546;9.954;2023-03-15T14:58:25;10.20;99.90
17639;DHT22;8938;53.546;9.954;2023-03-15T15:00:53;10.10;99.90
17639;DHT22;8938;53.546;9.954;2023-03-15T15:05:48;10.20;99.90
17639;DHT22;8938;53.546;9.954;2023-03-15T15:08:17;10.10;99.90
17639;DHT22;8938;53.546;9.954;2023-03-15T15:10:44;10.10;99.90
17639;DHT22;8938;53.546;9.954;2023-03-15T15:13:17;10.10;99.90
17639;DHT22;8938;53.546;9.954;2023-03-15T15:15:43;10.10;99.90
17639;DHT22;8938;53.546;9.954;2023-03-15T15:18:09;10.10;99.90
17639;DHT22;8938;53.546;9.954;2023-03-15T15:20:34;10.20;99.90
17639;DHT22;8938;53.546;9.954;2023-03-15T15:23:00;10.10;99.90
17639;DHT22;8938;53.546;9.954;2023-03-15T15:25:26;10.10;99.90
17639;DHT22;8938;53.546;9.954;2023-03-15T15:27:54;10.20;99.90
17639;DHT22;8938;53.546;9.954;2023-03-15T15:30:22;10.20;99.90
17639;DHT22;8938;53.546;9.954;2023-03-15T15:32:49;10.20;99.90
17639;DHT22;8938;53.546;9.954;2023-03-15T15:35:19;10.30;99.60
17639;DHT22;8938;53.546;9.954;2023-03-15T15:37:46;10.20;99.00
17639;DHT22;8938;53.546;9.954;2023-03-15T15:40:27;10.30;98.50
17639;DHT22;8938;53.546;9.954;2023-03-15T15:42:53;10.30;98.50
17639;DHT22;8938;53.546;9.954;2023-03-15T15:45:19;10.50;98.10
17639;DHT22;8938;53.546;9.954;2023-03-15T15:47:45;10.50;96.90
17639;DHT22;8938;53.546;9.954;2023-03-15T15:50:13;10.50;97.10
17639;DHT22;8938;53.546;9.954;2023-03-15T15:52:45;10.50;96.70
17639;DHT22;8938;53.546;9.954;2023-03-15T15:55:17;10.50;96.10
17639;DHT22;8938;53.546;9.954;2023-03-15T15:57:45;10.40;96.30
17639;DHT22;8938;53.546;9.954;2023-03-15T16:00:18;10.40;96.10
17639;DHT22;8938;53.546;9.954;2023-03-15T16:02:45;10.20;95.80
17639;DHT22;8938;53.546;9.954;2023-03-15T16:05:11;10.20;96.20
17639;DHT22;8938;53.546;9.954;2023-03-15T16:07:37;10.20;96.10
17639;DHT22;8938;53.546;9.954;2023-03-15T16:10:06;10.30;96.10
17639;DHT22;8938;53.546;9.954;2023-03-15T16:12:32;10.20;96.30
17639;DHT22;8938;53.546;9.954;2023-03-15T16:14:58;10.10;96.20
17639;DHT22;8938;53.546;9.954;2023-03-15T16:17:24;10.10;96.30
17639;DHT22;8938;53.546;9.954;2023-03-15T16:19:51;10.20;96.40
17639;DHT22;8938;53.546;9.954;2023-03-15T16:22:19;10.10;96.20
17639;DHT22;8938;53.546;9.954;2023-03-15T16:24:52;10.10;96.20
17639;DHT22;8938;53.546;9.954;2023-03-15T16:27:22;10.00;96.00
17639;DHT22;8938;53.546;9.954;2023-03-15T16:29:49;10.00;96.60
17639;DHT22;8938;53.546;9.954;2023-03-15T16:32:18;10.00;96.50
17639;DHT22;8938;53.546;9.954;2023-03-15T16:34:45;9.90;96.60
17639;DHT22;8938;53.546;9.954;2023-03-15T16:37:29;10.10;97.60
17639;DHT22;8938;53.546;9.954;2023-03-15T16:39:55;10.20;97.30
17639;DHT22;8938;53.546;9.954;2023-03-15T16:42:25;10.20;97.20
17639;DHT22;8938;53.546;9.954;2023-03-15T16:44:51;10.10;97.20
17639;DHT22;8938;53.546;9.954;2023-03-15T16:47:17;10.10;97.30
17639;DHT22;8938;53.546;9.954;2023-03-15T16:49:43;10.10;97.30
17639;DHT22;8938;53.546;9.954;2023-03-15T16:52:10;9.70;97.80
17639;DHT22;8938;53.546;9.954;2023-03-15T16:54:38;10.00;97.90
17639;DHT22;8938;53.546;9.954;2023-03-15T16:57:15;10.10;97.80
17639;DHT22;8938;53.546;9.954;2023-03-15T16:59:43;10.10;97.80
17639;DHT22;8938;53.546;9.954;2023-03-15T17:02:20;10.10;97.60
17639;DHT22;8938;53.546;9.954;2023-03-15T17:04:47;10.10;97.30
17639;DHT22;8938;53.546;9.954;2023-03-15T17:07:13;10.00;97.20
17639;DHT22;8938;53.546;9.954;2023-03-15T17:09:44;10.00;97.00
17639;DHT22;8938;53.546;9.954;2023-03-15T17:12:25;9.90;97.10
17639;DHT22;8938;53.546;9.954;2023-03-15T17:14:54;9.90;97.00
17639;DHT22;8938;53.546;9.954;2023-03-15T17:17:20;9.90;97.20
17639;DHT22;8938;53.546;9.954;2023-03-15T17:19:46;9.90;97.20
17639;DHT22;8938;53.546;9.954;2023-03-15T17:22:14;9.90;97.00